sensor_id;sensor_type;location;lat;lon;timestamp;P1;durP1;ratioP1;P2;durP2;ratioP2
8281;SDS011;25606;42.686;23.136;2022-11-15T00:02:11;57.43;;;29.90;;
8281;SDS011;25606;42.686;23.136;2022-11-15T00:04:38;47.03;;;25.70;;
8281;SDS011;25606;42.686;23.136;2022-11-15T00:07:06;41.23;;;24.33;;
8281;SDS011;25606;42.686;23.136;2022-11-15T00:09:33;38.50;;;21.60;;
8281;SDS011;25606;42.686;23.136;2022-11-15T00:12:01;36.00;;;22.03;;
8281;SDS011;25606;42.686;23.136;2022-11-15T00:14:29;33.17;;;20.77;;
8281;SDS011;25606;42.686;23.136;2022-11-15T00:16:56;38.47;;;21.83;;
8281;SDS011;25606;42.686;23.136;2022-11-15T00:19:23;42.20;;;24.10;;
8281;SDS011;25606;42.686;23.136;2022-11-15T00:21:51;48.30;;;25.83;;
8281;SDS011;25606;42.686;23.136;2022-11-15T00:24:18;48.20;;;25.43;;
8281;SDS011;25606;42.686;23.136;2022-11-15T00:26:45;41.70;;;26.53;;
8281;SDS011;25606;42.686;23.136;2022-11-15T00:29:14;51.93;;;29.80;;
8281;SDS011;25606;42.686;23.136;2022-11-15T00:31:42;52.47;;;28.13;;
8281;SDS011;25606;42.686;23.136;2022-11-15T00:34:09;51.53;;;29.57;;
8281;SDS011;25606;42.686;23.136;2022-11-15T00:36:37;64.33;;;34.20;;
8281;SDS011;25606;42.686;23.136;2022-11-15T00:39:04;71.83;;;37.80;;
8281;SDS011;25606;42.686;23.136;2022-11-15T00:41:31;68.90;;;36.23;;
8281;SDS011;25606;42.686;23.136;2022-11-15T00:43:59;69.03;;;37.60;;
8281;SDS011;25606;42.686;23.136;2022-11-15T00:46:28;63.77;;;35.67;;
8281;SDS011;25606;42.686;23.136;2022-11-15T00:48:55;58.87;;;33.23;;
8281;SDS011;25606;42.686;23.136;2022-11-15T00:51:22;53.43;;;30.47;;
8281;SDS011;25606;42.686;23.136;2022-11-15T00:53:49;60.63;;;31.10;;
8281;SDS011;25606;42.686;23.136;2022-11-15T00:56:17;55.00;;;29.27;;
8281;SDS011;25606;42.686;23.136;2022-11-15T00:58:44;55.80;;;30.97;;
8281;SDS011;25606;42.686;23.136;2022-11-15T01:01:12;53.27;;;30.50;;
8281;SDS011;25606;42.686;23.136;2022-11-15T01:03:41;56.43;;;29.70;;
8281;SDS011;25606;42.686;23.136;2022-11-15T01:06:08;53.23;;;28.70;;
8281;SDS011;25606;42.686;23.136;2022-11-15T01:08:37;52.07;;;29.60;;
8281;SDS011;25606;42.686;23.136;2022-11-15T01:11:05;51.20;;;28.80;;
8281;SDS011;25606;42.686;23.136;2022-11-15T01:13:33;50.00;;;28.40;;
8281;SDS011;25606;42.686;23.136;2022-11-15T01:16:05;57.07;;;30.90;;
8281;SDS011;25606;42.686;23.136;2022-11-15T01:18:32;58.97;;;29.53;;
8281;SDS011;25606;42.686;23.136;2022-11-15T01:21:05;53.77;;;29.47;;
8281;SDS011;25606;42.686;23.136;2022-11-15T01:23:32;50.40;;;28.00;;
8281;SDS011;25606;42.686;23.136;2022-11-15T01:26:00;55.17;;;29.00;;
8281;SDS011;25606;42.686;23.136;2022-11-15T01:28:29;49.97;;;29.03;;
8281;SDS011;25606;42.686;23.136;2022-11-15T01:30:57;54.10;;;29.53;;
8281;SDS011;25606;42.686;23.136;2022-11-15T01:33:24;52.40;;;29.37;;
8281;SDS011;25606;42.686;23.136;2022-11-15T01:35:52;54.20;;;30.47;;
8281;SDS011;25606;42.686;23.136;2022-11-15T01:38:21;56.57;;;32.27;;
8281;SDS011;25606;42.686;23.136;2022-11-15T01:40:48;60.73;;;33.73;;
8281;SDS011;25606;42.686;23.136;2022-11-15T01:43:19;62.03;;;34.57;;
8281;SDS011;25606;42.686;23.136;2022-11-15T01:45:47;63.60;;;32.83;;
8281;SDS011;25606;42.686;23.136;2022-11-15T01:48:16;62.33;;;33.23;;
8281;SDS011;25606;42.686;23.136;2022-11-15T01:50:43;61.23;;;32.80;;
8281;SDS011;25606;42.686;23.136;2022-11-15T01:53:11;56.47;;;31.77;;
8281;SDS011;25606;42.686;23.136;2022-11-15T01:55:40;60.10;;;32.23;;
8281;SDS011;25606;42.686;23.136;2022-11-15T01:58:07;55.10;;;31.37;;
8281;SDS011;25606;42.686;23.136;2022-11-15T02:00:34;55.83;;;29.83;;
8281;SDS011;25606;42.686;23.136;2022-11-15T02:03:02;51.13;;;29.17;;
8281;SDS011;25606;42.686;23.136;2022-11-15T02:05:30;50.00;;;25.93;;
8281;SDS011;25606;42.686;23.136;2022-11-15T02:07:57;54.00;;;28.87;;
8281;SDS011;25606;42.686;23.136;2022-11-15T02:10:27;47.13;;;27.53;;
8281;SDS011;25606;42.686;23.136;2022-11-15T02:12:56;45.80;;;24.90;;
8281;SDS011;25606;42.686;23.136;2022-11-15T02:15:26;37.13;;;22.43;;
8281;SDS011;25606;42.686;23.136;2022-11-15T02:18:09;42.73;;;23.50;;
8281;SDS011;25606;42.686;23.136;2022-11-15T02:20:42;48.23;;;23.57;;
8281;SDS011;25606;42.686;23.136;2022-11-15T02:26:07;49.20;;;27.07;;
8281;SDS011;25606;42.686;23.136;2022-11-15T02:28:44;51.80;;;26.20;;
8281;SDS011;25606;42.686;23.136;2022-11-15T02:31:16;39.63;;;22.50;;
8281;SDS011;25606;42.686;23.136;2022-11-15T02:33:47;35.73;;;20.83;;
8281;SDS011;25606;42.686;23.136;2022-11-15T02:36:18;38.53;;;22.13;;
8281;SDS011;25606;42.686;23.136;2022-11-15T02:38:52;44.40;;;22.53;;
8281;SDS011;25606;42.686;23.136;2022-11-15T02:41:22;41.67;;;22.33;;
8281;SDS011;25606;42.686;23.136;2022-11-15T02:43:53;46.83;;;22.47;;
8281;SDS011;25606;42.686;23.136;2022-11-15T02:46:26;44.87;;;24.03;;
8281;SDS011;25606;42.686;23.136;2022-11-15T02:49:09;54.33;;;28.60;;
8281;SDS011;25606;42.686;23.136;2022-11-15T02:51:37;52.33;;;26.87;;
8281;SDS011;25606;42.686;23.136;2022-11-15T02:54:05;54.07;;;28.90;;
8281;SDS011;25606;42.686;23.136;2022-11-15T02:56:32;54.33;;;29.07;;
8281;SDS011;25606;42.686;23.136;2022-11-15T02:59:03;59.60;;;29.53;;
8281;SDS011;25606;42.686;23.136;2022-11-15T03:01:37;54.90;;;28.67;;
8281;SDS011;25606;42.686;23.136;2022-11-15T03:04:08;49.77;;;27.07;;
8281;SDS011;25606;42.686;23.136;2022-11-15T03:06:42;52.47;;;27.93;;
8281;SDS011;25606;42.686;23.136;2022-11-15T03:09:13;57.40;;;28.93;;
8281;SDS011;25606;42.686;23.136;2022-11-15T03:11:46;55.47;;;28.40;;
8281;SDS011;25606;42.686;23.136;2022-11-15T03:14:18;48.70;;;26.70;;
8281;SDS011;25606;42.686;23.136;2022-11-15T03:16:49;55.80;;;28.83;;
8281;SDS011;25606;42.686;23.136;2022-11-15T03:19:19;47.77;;;27.43;;
8281;SDS011;25606;42.686;23.136;2022-11-15T03:21:47;53.63;;;27.23;;
8281;SDS011;25606;42.686;23.136;2022-11-15T03:24:14;52.70;;;26.90;;
8281;SDS011;25606;42.686;23.136;2022-11-15T03:26:43;55.17;;;27.97;;
8281;SDS011;25606;42.686;23.136;2022-11-15T03:29:13;56.80;;;27.70;;
8281;SDS011;25606;42.686;23.136;2022-11-15T03:31:42;59.27;;;28.40;;
8281;SDS011;25606;42.686;23.136;2022-11-15T03:34:17;56.00;;;29.17;;
8281;SDS011;25606;42.686;23.136;2022-11-15T03:36:46;54.80;;;27.50;;
8281;SDS011;25606;42.686;23.136;2022-11-15T03:39:14;50.40;;;26.93;;
8281;SDS011;25606;42.686;23.136;2022-11-15T03:41:43;48.97;;;26.40;;
8281;SDS011;25606;42.686;23.136;2022-11-15T03:44:13;47.33;;;25.47;;
8281;SDS011;25606;42.686;23.136;2022-11-15T03:46:44;47.23;;;26.07;;
8281;SDS011;25606;42.686;23.136;2022-11-15T03:49:14;52.93;;;25.43;;
8281;SDS011;25606;42.686;23.136;2022-11-15T03:51:43;51.63;;;27.10;;
8281;SDS011;25606;42.686;23.136;2022-11-15T03:54:11;58.83;;;28.67;;
8281;SDS011;25606;42.686;23.136;2022-11-15T03:56:39;52.73;;;29.43;;
8281;SDS011;25606;42.686;23.136;2022-11-15T03:59:06;52.90;;;27.83;;
8281;SDS011;25606;42.686;23.136;2022-11-15T04:01:33;56.00;;;27.63;;
8281;SDS011;25606;42.686;23.136;2022-11-15T04:04:01;52.43;;;26.90;;
8281;SDS011;25606;42.686;23.136;2022-11-15T04:06:28;56.03;;;28.13;;
8281;SDS011;25606;42.686;23.136;2022-11-15T04:08:57;49.27;;;27.67;;
8281;SDS011;25606;42.686;23.136;2022-11-15T04:11:24;51.43;;;26.33;;
8281;SDS011;25606;42.686;23.136;2022-11-15T04:13:51;61.80;;;29.20;;
8281;SDS011;25606;42.686;23.136;2022-11-15T04:16:18;58.37;;;27.80;;
8281;SDS011;25606;42.686;23.136;2022-11-15T04:18:46;110.07;;;29.67;;
8281;SDS011;25606;42.686;23.136;2022-11-15T04:21:33;126.90;;;30.70;;
8281;SDS011;25606;42.686;23.136;2022-11-15T04:24:20;52.53;;;24.97;;
8281;SDS011;25606;42.686;23.136;2022-11-15T04:26:47;58.33;;;27.70;;
8281;SDS011;25606;42.686;23.136;2022-11-15T04:29:14;129.90;;;29.03;;
8281;SDS011;25606;42.686;23.136;2022-11-15T04:32:00;139.73;;;26.50;;
8281;SDS011;25606;42.686;23.136;2022-11-15T04:34:27;236.33;;;33.30;;
8281;SDS011;25606;42.686;23.136;2022-11-15T04:36:55;121.00;;;27.90;;
8281;SDS011;25606;42.686;23.136;2022-11-15T04:39:42;103.30;;;27.63;;
8281;SDS011;25606;42.686;23.136;2022-11-15T04:42:10;80.83;;;26.43;;
8281;SDS011;25606;42.686;23.136;2022-11-15T04:44:37;56.43;;;25.30;;
8281;SDS011;25606;42.686;23.136;2022-11-15T04:47:04;139.10;;;29.97;;
8281;SDS011;25606;42.686;23.136;2022-11-15T04:49:32;126.47;;;28.77;;
8281;SDS011;25606;42.686;23.136;2022-11-15T04:51:59;52.20;;;24.63;;
8281;SDS011;25606;42.686;23.136;2022-11-15T04:54:26;56.73;;;25.47;;
8281;SDS011;25606;42.686;23.136;2022-11-15T04:56:55;50.07;;;25.07;;
8281;SDS011;25606;42.686;23.136;2022-11-15T04:59:22;46.83;;;23.43;;
8281;SDS011;25606;42.686;23.136;2022-11-15T05:01:49;40.73;;;21.87;;
8281;SDS011;25606;42.686;23.136;2022-11-15T05:04:17;38.37;;;20.60;;
8281;SDS011;25606;42.686;23.136;2022-11-15T05:06:49;38.97;;;19.87;;
8281;SDS011;25606;42.686;23.136;2022-11-15T05:09:17;43.53;;;26.60;;
8281;SDS011;25606;42.686;23.136;2022-11-15T05:11:45;37.97;;;22.00;;
8281;SDS011;25606;42.686;23.136;2022-11-15T05:14:14;38.73;;;21.37;;
8281;SDS011;25606;42.686;23.136;2022-11-15T05:16:41;36.97;;;19.37;;
8281;SDS011;25606;42.686;23.136;2022-11-15T05:19:09;36.07;;;19.00;;
8281;SDS011;25606;42.686;23.136;2022-11-15T05:21:36;29.80;;;17.77;;
8281;SDS011;25606;42.686;23.136;2022-11-15T05:24:04;27.43;;;17.80;;
8281;SDS011;25606;42.686;23.136;2022-11-15T05:26:31;34.17;;;18.40;;
8281;SDS011;25606;42.686;23.136;2022-11-15T05:28:59;26.30;;;17.00;;
8281;SDS011;25606;42.686;23.136;2022-11-15T05:31:27;52.67;;;20.73;;
8281;SDS011;25606;42.686;23.136;2022-11-15T05:33:55;65.43;;;22.87;;
8281;SDS011;25606;42.686;23.136;2022-11-15T05:36:25;64.57;;;20.60;;
8281;SDS011;25606;42.686;23.136;2022-11-15T05:38:54;41.97;;;19.90;;
8281;SDS011;25606;42.686;23.136;2022-11-15T05:41:22;43.20;;;21.17;;
8281;SDS011;25606;42.686;23.136;2022-11-15T05:43:52;56.60;;;20.30;;
8281;SDS011;25606;42.686;23.136;2022-11-15T05:46:20;53.10;;;20.07;;
8281;SDS011;25606;42.686;23.136;2022-11-15T05:48:49;112.77;;;22.20;;
8281;SDS011;25606;42.686;23.136;2022-11-15T05:51:17;72.33;;;20.60;;
8281;SDS011;25606;42.686;23.136;2022-11-15T05:53:45;73.33;;;20.23;;
8281;SDS011;25606;42.686;23.136;2022-11-15T05:56:12;60.50;;;20.67;;
8281;SDS011;25606;42.686;23.136;2022-11-15T05:58:40;45.30;;;20.17;;
8281;SDS011;25606;42.686;23.136;2022-11-15T06:01:08;64.63;;;20.33;;
8281;SDS011;25606;42.686;23.136;2022-11-15T06:03:36;112.37;;;20.53;;
8281;SDS011;25606;42.686;23.136;2022-11-15T06:06:04;68.87;;;18.57;;
8281;SDS011;25606;42.686;23.136;2022-11-15T06:08:32;66.43;;;19.13;;
8281;SDS011;25606;42.686;23.136;2022-11-15T06:11:03;64.93;;;18.87;;
8281;SDS011;25606;42.686;23.136;2022-11-15T06:13:30;52.30;;;18.13;;
8281;SDS011;25606;42.686;23.136;2022-11-15T06:15:58;57.83;;;19.90;;
8281;SDS011;25606;42.686;23.136;2022-11-15T06:18:25;61.47;;;19.63;;
8281;SDS011;25606;42.686;23.136;2022-11-15T06:20:52;45.73;;;20.03;;
8281;SDS011;25606;42.686;23.136;2022-11-15T06:23:21;71.93;;;20.00;;
8281;SDS011;25606;42.686;23.136;2022-11-15T06:25:48;109.43;;;20.27;;
8281;SDS011;25606;42.686;23.136;2022-11-15T06:28:15;78.77;;;18.67;;
8281;SDS011;25606;42.686;23.136;2022-11-15T06:30:43;37.80;;;17.67;;
8281;SDS011;25606;42.686;23.136;2022-11-15T06:33:10;41.03;;;20.13;;
8281;SDS011;25606;42.686;23.136;2022-11-15T06:35:37;37.03;;;19.50;;
8281;SDS011;25606;42.686;23.136;2022-11-15T06:38:05;36.70;;;19.83;;
8281;SDS011;25606;42.686;23.136;2022-11-15T06:40:35;52.67;;;22.53;;
8281;SDS011;25606;42.686;23.136;2022-11-15T06:43:02;40.30;;;19.27;;
8281;SDS011;25606;42.686;23.136;2022-11-15T06:45:29;52.17;;;19.13;;
8281;SDS011;25606;42.686;23.136;2022-11-15T06:47:57;54.40;;;21.13;;
8281;SDS011;25606;42.686;23.136;2022-11-15T06:50:24;35.77;;;20.97;;
8281;SDS011;25606;42.686;23.136;2022-11-15T06:52:52;34.07;;;18.97;;
8281;SDS011;25606;42.686;23.136;2022-11-15T06:55:19;94.83;;;19.90;;
8281;SDS011;25606;42.686;23.136;2022-11-15T06:57:48;84.27;;;18.10;;
8281;SDS011;25606;42.686;23.136;2022-11-15T07:00:16;35.53;;;15.80;;
8281;SDS011;25606;42.686;23.136;2022-11-15T07:02:44;35.67;;;15.80;;
8281;SDS011;25606;42.686;23.136;2022-11-15T07:05:11;45.57;;;17.30;;
8281;SDS011;25606;42.686;23.136;2022-11-15T07:07:39;32.33;;;17.63;;
8281;SDS011;25606;42.686;23.136;2022-11-15T07:10:06;39.23;;;17.60;;
8281;SDS011;25606;42.686;23.136;2022-11-15T07:12:34;41.00;;;17.73;;
8281;SDS011;25606;42.686;23.136;2022-11-15T07:15:03;34.23;;;17.90;;
8281;SDS011;25606;42.686;23.136;2022-11-15T07:17:30;42.63;;;17.87;;
8281;SDS011;25606;42.686;23.136;2022-11-15T07:19:57;42.67;;;17.97;;
8281;SDS011;25606;42.686;23.136;2022-11-15T07:22:25;32.13;;;16.27;;
8281;SDS011;25606;42.686;23.136;2022-11-15T07:24:52;35.73;;;16.40;;
8281;SDS011;25606;42.686;23.136;2022-11-15T07:27:19;42.47;;;16.40;;
8281;SDS011;25606;42.686;23.136;2022-11-15T07:29:47;42.53;;;16.10;;
8281;SDS011;25606;42.686;23.136;2022-11-15T07:32:15;32.67;;;16.23;;
8281;SDS011;25606;42.686;23.136;2022-11-15T07:34:42;32.50;;;16.90;;
8281;SDS011;25606;42.686;23.136;2022-11-15T07:37:11;34.50;;;15.07;;
8281;SDS011;25606;42.686;23.136;2022-11-15T07:39:38;32.33;;;16.33;;
8281;SDS011;25606;42.686;23.136;2022-11-15T07:42:05;33.13;;;15.83;;
8281;SDS011;25606;42.686;23.136;2022-11-15T07:44:50;28.97;;;15.13;;
8281;SDS011;25606;42.686;23.136;2022-11-15T07:47:19;26.13;;;15.03;;
8281;SDS011;25606;42.686;23.136;2022-11-15T07:49:46;25.70;;;14.80;;
8281;SDS011;25606;42.686;23.136;2022-11-15T07:52:14;50.23;;;16.33;;
8281;SDS011;25606;42.686;23.136;2022-11-15T07:54:41;32.73;;;16.40;;
8281;SDS011;25606;42.686;23.136;2022-11-15T07:57:08;27.50;;;13.90;;
8281;SDS011;25606;42.686;23.136;2022-11-15T07:59:35;24.63;;;14.33;;
8281;SDS011;25606;42.686;23.136;2022-11-15T08:02:03;27.10;;;16.60;;
8281;SDS011;25606;42.686;23.136;2022-11-15T08:04:31;35.83;;;16.50;;
8281;SDS011;25606;42.686;23.136;2022-11-15T08:06:59;32.97;;;18.13;;
8281;SDS011;25606;42.686;23.136;2022-11-15T08:09:26;24.97;;;16.30;;
8281;SDS011;25606;42.686;23.136;2022-11-15T08:11:53;41.90;;;16.90;;
8281;SDS011;25606;42.686;23.136;2022-11-15T08:14:20;54.17;;;18.53;;
8281;SDS011;25606;42.686;23.136;2022-11-15T08:16:48;32.47;;;16.97;;
8281;SDS011;25606;42.686;23.136;2022-11-15T08:19:15;60.47;;;18.73;;
8281;SDS011;25606;42.686;23.136;2022-11-15T08:21:44;41.27;;;19.70;;
8281;SDS011;25606;42.686;23.136;2022-11-15T08:24:11;33.30;;;20.53;;
8281;SDS011;25606;42.686;23.136;2022-11-15T08:26:38;52.70;;;18.10;;
8281;SDS011;25606;42.686;23.136;2022-11-15T08:29:06;37.30;;;20.13;;
8281;SDS011;25606;42.686;23.136;2022-11-15T08:31:33;36.80;;;19.83;;
8281;SDS011;25606;42.686;23.136;2022-11-15T08:34:01;36.60;;;20.07;;
8281;SDS011;25606;42.686;23.136;2022-11-15T08:36:29;94.13;;;57.40;;
8281;SDS011;25606;42.686;23.136;2022-11-15T08:38:57;50.70;;;25.23;;
8281;SDS011;25606;42.686;23.136;2022-11-15T08:41:25;49.80;;;24.57;;
8281;SDS011;25606;42.686;23.136;2022-11-15T08:43:53;35.40;;;22.37;;
8281;SDS011;25606;42.686;23.136;2022-11-15T08:46:20;40.73;;;22.30;;
8281;SDS011;25606;42.686;23.136;2022-11-15T08:48:48;40.80;;;23.10;;
8281;SDS011;25606;42.686;23.136;2022-11-15T08:51:15;36.27;;;22.07;;
8281;SDS011;25606;42.686;23.136;2022-11-15T08:53:42;37.37;;;21.10;;
8281;SDS011;25606;42.686;23.136;2022-11-15T08:56:12;34.97;;;20.07;;
8281;SDS011;25606;42.686;23.136;2022-11-15T08:58:40;32.27;;;19.40;;
8281;SDS011;25606;42.686;23.136;2022-11-15T09:01:13;37.30;;;20.47;;
8281;SDS011;25606;42.686;23.136;2022-11-15T09:03:41;37.27;;;21.63;;
8281;SDS011;25606;42.686;23.136;2022-11-15T09:06:08;34.00;;;19.80;;
8281;SDS011;25606;42.686;23.136;2022-11-15T09:08:35;33.73;;;20.63;;
8281;SDS011;25606;42.686;23.136;2022-11-15T09:11:03;39.30;;;22.63;;
8281;SDS011;25606;42.686;23.136;2022-11-15T09:13:32;36.70;;;21.37;;
8281;SDS011;25606;42.686;23.136;2022-11-15T09:15:59;62.47;;;20.07;;
8281;SDS011;25606;42.686;23.136;2022-11-15T09:18:27;40.37;;;21.80;;
8281;SDS011;25606;42.686;23.136;2022-11-15T09:20:55;38.00;;;21.90;;
8281;SDS011;25606;42.686;23.136;2022-11-15T09:23:23;39.47;;;23.27;;
8281;SDS011;25606;42.686;23.136;2022-11-15T09:25:50;39.97;;;23.83;;
8281;SDS011;25606;42.686;23.136;2022-11-15T09:28:18;41.43;;;21.37;;
8281;SDS011;25606;42.686;23.136;2022-11-15T09:30:47;43.23;;;23.83;;
8281;SDS011;25606;42.686;23.136;2022-11-15T09:33:14;37.20;;;22.13;;
8281;SDS011;25606;42.686;23.136;2022-11-15T09:35:41;35.13;;;20.80;;
8281;SDS011;25606;42.686;23.136;2022-11-15T09:38:09;36.73;;;21.00;;
8281;SDS011;25606;42.686;23.136;2022-11-15T09:40:36;42.40;;;21.53;;
8281;SDS011;25606;42.686;23.136;2022-11-15T09:43:17;40.13;;;21.47;;
8281;SDS011;25606;42.686;23.136;2022-11-15T09:45:53;38.87;;;21.83;;
8281;SDS011;25606;42.686;23.136;2022-11-15T09:48:33;38.43;;;22.10;;
8281;SDS011;25606;42.686;23.136;2022-11-15T09:51:03;36.40;;;22.13;;
8281;SDS011;25606;42.686;23.136;2022-11-15T09:53:32;35.57;;;20.73;;
8281;SDS011;25606;42.686;23.136;2022-11-15T09:56:02;35.63;;;20.40;;
8281;SDS011;25606;42.686;23.136;2022-11-15T09:58:40;32.90;;;21.83;;
8281;SDS011;25606;42.686;23.136;2022-11-15T10:01:12;36.17;;;22.07;;
8281;SDS011;25606;42.686;23.136;2022-11-15T10:03:43;35.23;;;21.57;;
8281;SDS011;25606;42.686;23.136;2022-11-15T10:06:14;36.27;;;21.33;;
8281;SDS011;25606;42.686;23.136;2022-11-15T10:08:46;35.30;;;21.30;;
8281;SDS011;25606;42.686;23.136;2022-11-15T10:11:17;34.50;;;22.33;;
8281;SDS011;25606;42.686;23.136;2022-11-15T10:13:46;32.80;;;21.10;;
8281;SDS011;25606;42.686;23.136;2022-11-15T10:16:19;31.97;;;21.53;;
8281;SDS011;25606;42.686;23.136;2022-11-15T10:18:51;36.27;;;21.90;;
8281;SDS011;25606;42.686;23.136;2022-11-15T10:21:29;38.10;;;20.87;;
8281;SDS011;25606;42.686;23.136;2022-11-15T10:23:59;35.63;;;20.27;;
8281;SDS011;25606;42.686;23.136;2022-11-15T10:26:26;32.90;;;21.63;;
8281;SDS011;25606;42.686;23.136;2022-11-15T10:28:54;29.73;;;19.30;;
8281;SDS011;25606;42.686;23.136;2022-11-15T10:31:24;34.77;;;21.43;;
8281;SDS011;25606;42.686;23.136;2022-11-15T10:36:23;37.93;;;22.23;;
8281;SDS011;25606;42.686;23.136;2022-11-15T10:38:51;34.60;;;19.97;;
8281;SDS011;25606;42.686;23.136;2022-11-15T10:41:19;35.93;;;21.20;;
8281;SDS011;25606;42.686;23.136;2022-11-15T10:44:02;35.73;;;23.03;;
8281;SDS011;25606;42.686;23.136;2022-11-15T10:46:31;40.30;;;22.57;;
8281;SDS011;25606;42.686;23.136;2022-11-15T10:49:06;35.83;;;22.17;;
8281;SDS011;25606;42.686;23.136;2022-11-15T10:51:40;32.53;;;21.27;;
8281;SDS011;25606;42.686;23.136;2022-11-15T10:54:09;36.10;;;22.77;;
8281;SDS011;25606;42.686;23.136;2022-11-15T10:56:38;33.20;;;20.63;;
8281;SDS011;25606;42.686;23.136;2022-11-15T10:59:09;34.30;;;21.63;;
8281;SDS011;25606;42.686;23.136;2022-11-15T11:01:46;34.43;;;22.87;;
8281;SDS011;25606;42.686;23.136;2022-11-15T11:04:14;36.30;;;23.47;;
8281;SDS011;25606;42.686;23.136;2022-11-15T11:06:48;33.60;;;23.63;;
8281;SDS011;25606;42.686;23.136;2022-11-15T11:09:22;42.63;;;25.90;;
8281;SDS011;25606;42.686;23.136;2022-11-15T11:11:51;46.60;;;25.93;;
8281;SDS011;25606;42.686;23.136;2022-11-15T11:14:20;42.50;;;26.60;;
8281;SDS011;25606;42.686;23.136;2022-11-15T11:16:50;44.33;;;27.17;;
8281;SDS011;25606;42.686;23.136;2022-11-15T11:19:30;48.63;;;29.70;;
8281;SDS011;25606;42.686;23.136;2022-11-15T11:22:00;52.57;;;31.77;;
8281;SDS011;25606;42.686;23.136;2022-11-15T11:24:30;49.23;;;32.30;;
8281;SDS011;25606;42.686;23.136;2022-11-15T11:27:06;48.17;;;30.83;;
8281;SDS011;25606;42.686;23.136;2022-11-15T11:29:39;53.47;;;33.47;;
8281;SDS011;25606;42.686;23.136;2022-11-15T11:32:17;58.10;;;33.87;;
8281;SDS011;25606;42.686;23.136;2022-11-15T11:34:51;65.73;;;35.30;;
8281;SDS011;25606;42.686;23.136;2022-11-15T11:37:24;54.83;;;34.63;;
8281;SDS011;25606;42.686;23.136;2022-11-15T11:39:58;59.07;;;35.27;;
8281;SDS011;25606;42.686;23.136;2022-11-15T11:42:30;67.07;;;37.60;;
8281;SDS011;25606;42.686;23.136;2022-11-15T11:45:02;68.00;;;39.03;;
8281;SDS011;25606;42.686;23.136;2022-11-15T11:47:35;69.33;;;40.90;;
8281;SDS011;25606;42.686;23.136;2022-11-15T11:50:10;72.37;;;42.77;;
8281;SDS011;25606;42.686;23.136;2022-11-15T11:52:42;76.37;;;42.83;;
8281;SDS011;25606;42.686;23.136;2022-11-15T11:55:13;81.27;;;44.73;;
8281;SDS011;25606;42.686;23.136;2022-11-15T11:57:43;76.53;;;43.53;;
8281;SDS011;25606;42.686;23.136;2022-11-15T12:00:17;76.87;;;43.37;;
8281;SDS011;25606;42.686;23.136;2022-11-15T12:02:47;80.93;;;45.50;;
8281;SDS011;25606;42.686;23.136;2022-11-15T12:05:17;84.23;;;46.53;;
8281;SDS011;25606;42.686;23.136;2022-11-15T12:07:45;77.53;;;46.47;;
8281;SDS011;25606;42.686;23.136;2022-11-15T12:10:19;82.40;;;47.13;;
8281;SDS011;25606;42.686;23.136;2022-11-15T12:12:49;81.20;;;47.37;;
8281;SDS011;25606;42.686;23.136;2022-11-15T12:15:20;74.93;;;46.97;;
8281;SDS011;25606;42.686;23.136;2022-11-15T12:17:51;80.73;;;43.70;;
8281;SDS011;25606;42.686;23.136;2022-11-15T12:20:19;84.90;;;46.00;;
8281;SDS011;25606;42.686;23.136;2022-11-15T12:22:48;86.27;;;47.93;;
8281;SDS011;25606;42.686;23.136;2022-11-15T12:25:18;87.53;;;47.80;;
8281;SDS011;25606;42.686;23.136;2022-11-15T12:27:47;86.73;;;46.63;;
8281;SDS011;25606;42.686;23.136;2022-11-15T12:30:17;86.93;;;47.73;;
8281;SDS011;25606;42.686;23.136;2022-11-15T12:32:49;88.57;;;47.57;;
8281;SDS011;25606;42.686;23.136;2022-11-15T12:35:23;88.10;;;48.03;;
8281;SDS011;25606;42.686;23.136;2022-11-15T12:37:51;86.87;;;47.63;;
8281;SDS011;25606;42.686;23.136;2022-11-15T12:40:33;87.67;;;47.53;;
8281;SDS011;25606;42.686;23.136;2022-11-15T12:45:52;93.77;;;51.60;;
8281;SDS011;25606;42.686;23.136;2022-11-15T12:51:06;90.93;;;48.47;;
8281;SDS011;25606;42.686;23.136;2022-11-15T12:53:34;96.30;;;52.13;;
8281;SDS011;25606;42.686;23.136;2022-11-15T12:56:08;86.43;;;49.90;;
8281;SDS011;25606;42.686;23.136;2022-11-15T12:58:41;94.27;;;51.33;;
8281;SDS011;25606;42.686;23.136;2022-11-15T13:01:09;95.23;;;52.20;;
8281;SDS011;25606;42.686;23.136;2022-11-15T13:03:43;90.53;;;50.47;;
8281;SDS011;25606;42.686;23.136;2022-11-15T13:06:39;87.53;;;49.37;;
8281;SDS011;25606;42.686;23.136;2022-11-15T13:11:51;101.67;;;51.50;;
8281;SDS011;25606;42.686;23.136;2022-11-15T13:17:10;99.03;;;50.90;;
8281;SDS011;25606;42.686;23.136;2022-11-15T13:19:39;98.27;;;52.17;;
8281;SDS011;25606;42.686;23.136;2022-11-15T13:22:09;90.53;;;49.03;;
8281;SDS011;25606;42.686;23.136;2022-11-15T13:24:55;85.47;;;47.57;;
8281;SDS011;25606;42.686;23.136;2022-11-15T13:27:22;94.30;;;47.33;;
8281;SDS011;25606;42.686;23.136;2022-11-15T13:29:49;85.17;;;46.83;;
8281;SDS011;25606;42.686;23.136;2022-11-15T13:32:16;87.33;;;49.80;;
8281;SDS011;25606;42.686;23.136;2022-11-15T13:34:44;93.07;;;49.07;;
8281;SDS011;25606;42.686;23.136;2022-11-15T13:37:14;73.23;;;43.53;;
8281;SDS011;25606;42.686;23.136;2022-11-15T13:40:09;82.80;;;46.23;;
8281;SDS011;25606;42.686;23.136;2022-11-15T13:42:37;82.97;;;45.97;;
8281;SDS011;25606;42.686;23.136;2022-11-15T13:45:05;78.17;;;44.07;;
8281;SDS011;25606;42.686;23.136;2022-11-15T13:47:32;82.63;;;44.27;;
8281;SDS011;25606;42.686;23.136;2022-11-15T13:49:59;88.43;;;48.40;;
8281;SDS011;25606;42.686;23.136;2022-11-15T13:52:28;88.50;;;48.63;;
8281;SDS011;25606;42.686;23.136;2022-11-15T13:54:59;87.17;;;46.97;;
8281;SDS011;25606;42.686;23.136;2022-11-15T13:57:29;84.77;;;48.03;;
8281;SDS011;25606;42.686;23.136;2022-11-15T13:59:57;85.03;;;47.87;;
8281;SDS011;25606;42.686;23.136;2022-11-15T14:02:29;98.23;;;50.53;;
8281;SDS011;25606;42.686;23.136;2022-11-15T14:04:58;85.73;;;48.37;;
8281;SDS011;25606;42.686;23.136;2022-11-15T14:07:28;81.77;;;46.23;;
8281;SDS011;25606;42.686;23.136;2022-11-15T14:09:56;80.87;;;46.30;;
8281;SDS011;25606;42.686;23.136;2022-11-15T14:12:25;82.43;;;47.13;;
8281;SDS011;25606;42.686;23.136;2022-11-15T14:14:52;84.77;;;46.50;;
8281;SDS011;25606;42.686;23.136;2022-11-15T14:17:20;74.33;;;43.70;;
8281;SDS011;25606;42.686;23.136;2022-11-15T14:19:48;82.73;;;43.87;;
8281;SDS011;25606;42.686;23.136;2022-11-15T14:22:17;84.27;;;47.43;;
8281;SDS011;25606;42.686;23.136;2022-11-15T14:24:50;85.57;;;46.30;;
8281;SDS011;25606;42.686;23.136;2022-11-15T14:27:31;87.40;;;48.73;;
8281;SDS011;25606;42.686;23.136;2022-11-15T14:29:58;84.90;;;47.60;;
8281;SDS011;25606;42.686;23.136;2022-11-15T14:32:26;90.63;;;47.80;;
8281;SDS011;25606;42.686;23.136;2022-11-15T14:34:54;88.60;;;48.30;;
8281;SDS011;25606;42.686;23.136;2022-11-15T14:37:22;81.07;;;44.13;;
8281;SDS011;25606;42.686;23.136;2022-11-15T14:39:51;80.80;;;44.60;;
8281;SDS011;25606;42.686;23.136;2022-11-15T14:42:20;76.57;;;43.97;;
8281;SDS011;25606;42.686;23.136;2022-11-15T14:44:47;80.67;;;44.07;;
8281;SDS011;25606;42.686;23.136;2022-11-15T14:47:14;78.03;;;44.90;;
8281;SDS011;25606;42.686;23.136;2022-11-15T14:49:42;93.20;;;52.00;;
8281;SDS011;25606;42.686;23.136;2022-11-15T14:55:00;88.27;;;44.13;;